createdAt,value
2023-02-11T00:01:51.241Z,102988.88
2023-02-11T00:04:54.046Z,102981.28
2023-02-11T00:07:57.314Z,102978.41
2023-02-11T00:11:00.180Z,102981.09
2023-02-11T00:14:06.072Z,102974.31
2023-02-11T00:17:08.878Z,102983.78
2023-02-11T00:20:11.879Z,102981.00
2023-02-11T00:23:15.318Z,102977.78
2023-02-11T00:26:24.096Z,102983.13
2023-02-11T00:29:27.081Z,102966.78
2023-02-11T00:32:30.122Z,102966.88
2023-02-11T00:35:32.872Z,102970.44
2023-02-11T00:38:36.601Z,102967.75
2023-02-11T00:41:39.856Z,102955.81
2023-02-11T00:44:43.544Z,102963.47
2023-02-11T00:47:46.268Z,102963.59
2023-02-11T00:50:49.092Z,102963.69
2023-02-11T00:53:52.013Z,102966.56
2023-02-11T00:56:54.715Z,102963.44
2023-02-11T00:59:57.785Z,102963.47
2023-02-11T01:03:00.913Z,102961.84
2023-02-11T01:06:04.225Z,102950.88
2023-02-11T01:09:07.251Z,102950.88
2023-02-11T01:12:11.304Z,102944.06
2023-02-11T01:15:19.942Z,102944.75
2023-02-11T01:18:22.833Z,102937.53
2023-02-11T01:21:26.064Z,102936.66
2023-02-11T01:24:29.093Z,102929.16
2023-02-11T01:27:31.940Z,102933.56
2023-02-11T01:30:34.657Z,102925.94
2023-02-11T01:33:39.801Z,102923.34
2023-02-11T01:36:42.681Z,102923.34
2023-02-11T01:39:45.484Z,102919.38
2023-02-11T01:42:50.949Z,102918.56
2023-02-11T01:46:00.938Z,102910.94
2023-02-11T01:49:06.773Z,102912.66
2023-02-11T01:52:35.477Z,102908.13
2023-02-11T01:55:56.749Z,102907.00
2023-02-11T01:59:06.203Z,102901.75
2023-02-11T02:02:13.087Z,102896.38
2023-02-11T02:05:15.782Z,102886.78
2023-02-11T02:08:47.256Z,102879.38
2023-02-11T02:11:51.339Z,102876.41
2023-02-11T02:15:17.820Z,102871.25
2023-02-11T02:18:53.659Z,102863.22
2023-02-11T02:22:33.945Z,102861.19
2023-02-11T02:25:50.321Z,102858.94
2023-02-11T02:29:17.800Z,102854.69
2023-02-11T02:32:39.696Z,102850.19
2023-02-11T02:36:01.334Z,102849.41
2023-02-11T02:39:12.374Z,102855.41
2023-02-11T02:42:17.020Z,102853.94
2023-02-11T02:45:20.624Z,102851.41
2023-02-11T02:48:35.890Z,102850.53
2023-02-11T02:51:48.672Z,102851.47
2023-02-11T02:55:25.465Z,102848.69
2023-02-11T02:58:30.963Z,102851.56
2023-02-11T03:01:50.819Z,102846.44
2023-02-11T03:05:29.580Z,102843.09
2023-02-11T03:08:42.466Z,102841.47
2023-02-11T03:11:45.786Z,102837.84
2023-02-11T03:14:51.689Z,102830.09
2023-02-11T03:17:58.918Z,102827.19
2023-02-11T03:21:03.990Z,102821.00
2023-02-11T03:24:13.125Z,102829.03
2023-02-11T03:27:20.432Z,102831.03
2023-02-11T03:30:36.045Z,102830.38
2023-02-11T03:34:02.776Z,102830.63
2023-02-11T03:37:22.264Z,102834.25
2023-02-11T03:40:40.028Z,102829.34
2023-02-11T03:43:51.309Z,102828.22
2023-02-11T03:46:55.091Z,102831.00
2023-02-11T03:49:58.857Z,102835.28
2023-02-11T03:53:03.013Z,102838.63
2023-02-11T03:56:10.165Z,102829.75
2023-02-11T03:59:13.100Z,102831.47
2023-02-11T04:02:16.283Z,102829.75
2023-02-11T04:05:19.194Z,102835.19
2023-02-11T04:08:21.944Z,102830.03
2023-02-11T04:11:24.760Z,102826.53
2023-02-11T04:14:27.565Z,102825.34
2023-02-11T04:17:30.353Z,102824.28
2023-02-11T04:20:33.144Z,102820.88
2023-02-11T04:23:36.192Z,102820.16
2023-02-11T04:26:39.020Z,102810.16
2023-02-11T04:29:42.551Z,102808.38
2023-02-11T04:32:45.408Z,102812.56
2023-02-11T04:35:48.730Z,102810.66
2023-02-11T04:38:52.113Z,102814.91
2023-02-11T04:41:54.942Z,102810.75
2023-02-11T04:44:57.812Z,102813.00
2023-02-11T04:48:03.181Z,102804.59
2023-02-11T04:51:06.355Z,102799.53
2023-02-11T04:54:09.071Z,102797.09
2023-02-11T04:57:11.894Z,102797.81
2023-02-11T05:00:15.510Z,102792.97
2023-02-11T05:03:18.451Z,102790.59
2023-02-11T05:06:21.905Z,102793.88
2023-02-11T05:09:24.655Z,102786.91
2023-02-11T05:12:27.574Z,102780.13
2023-02-11T05:15:30.656Z,102792.34
2023-02-11T05:18:33.425Z,102785.78
2023-02-11T05:21:36.307Z,102782.44
2023-02-11T05:24:39.459Z,102779.66
2023-02-11T05:27:42.265Z,102774.59
2023-02-11T05:30:45.312Z,102779.94
2023-02-11T05:33:48.154Z,102779.66
2023-02-11T05:36:50.888Z,102778.13
2023-02-11T05:39:53.652Z,102778.78
2023-02-11T05:42:56.421Z,102770.56
2023-02-11T05:45:59.396Z,102767.81
2023-02-11T05:49:02.809Z,102762.00
2023-02-11T05:52:05.604Z,102764.47
2023-02-11T05:55:08.476Z,102761.41
2023-02-11T05:58:11.294Z,102770.19
2023-02-11T06:01:14.222Z,102770.19
2023-02-11T06:04:17.014Z,102765.81
2023-02-11T06:07:20.019Z,102774.09
2023-02-11T06:10:23.025Z,102768.97
2023-02-11T06:13:25.824Z,102769.72
2023-02-11T06:16:28.967Z,102762.69
2023-02-11T06:19:31.820Z,102765.34
2023-02-11T06:22:35.200Z,102755.38
2023-02-11T06:25:38.299Z,102774.31
2023-02-11T06:28:42.106Z,102769.09
2023-02-11T06:31:45.054Z,102777.19
2023-02-11T06:34:47.948Z,102768.81
2023-02-11T06:37:50.736Z,102770.00
2023-02-11T06:40:53.558Z,102771.00
2023-02-11T06:43:56.255Z,102780.09
2023-02-11T06:46:59.079Z,102771.84
2023-02-11T06:50:02.048Z,102767.63
2023-02-11T06:53:04.997Z,102766.72
2023-02-11T06:56:10.612Z,102763.84
2023-02-11T06:59:17.270Z,102763.84
2023-02-11T07:02:21.124Z,102762.75
2023-02-11T07:05:24.260Z,102762.47
2023-02-11T07:08:27.600Z,102756.66
2023-02-11T07:11:31.403Z,102760.13
2023-02-11T07:14:34.184Z,102761.28
2023-02-11T07:17:39.880Z,102760.53
2023-02-11T07:20:43.075Z,102753.69
2023-02-11T07:23:46.259Z,102756.06
2023-02-11T07:26:49.126Z,102749.75
2023-02-11T07:29:52.118Z,102744.56
2023-02-11T07:32:56.343Z,102753.72
2023-02-11T07:36:01.257Z,102753.31
2023-02-11T07:39:04.500Z,102745.66
2023-02-11T07:42:07.404Z,102744.38
2023-02-11T07:45:11.115Z,102741.66
2023-02-11T07:48:13.869Z,102730.91
2023-02-11T07:51:19.743Z,102742.50
2023-02-11T07:54:22.954Z,102743.22
2023-02-11T07:57:25.741Z,102735.81
2023-02-11T08:00:28.587Z,102734.56
2023-02-11T08:03:32.188Z,102731.56
2023-02-11T08:06:40.166Z,102725.88
2023-02-11T08:09:43.369Z,102725.91
2023-02-11T08:12:46.102Z,102725.06
2023-02-11T08:15:49.166Z,102724.25
2023-02-11T08:18:53.474Z,102718.44
2023-02-11T08:21:57.493Z,102721.69
2023-02-11T08:25:00.497Z,102721.28
2023-02-11T08:28:03.345Z,102715.47
2023-02-11T08:31:08.327Z,102715.50
2023-02-11T08:34:14.354Z,102704.78
2023-02-11T08:37:17.878Z,102695.25
2023-02-11T08:40:20.821Z,102703.84
2023-02-11T08:43:23.761Z,102705.47
2023-02-11T08:46:27.455Z,102704.84
2023-02-11T08:49:31.665Z,102701.03
2023-02-11T08:52:36.038Z,102704.53
2023-02-11T08:55:38.933Z,102703.94
2023-02-11T08:58:42.425Z,102705.16
2023-02-11T09:01:47.413Z,102707.13
2023-02-11T09:04:50.291Z,102700.69
2023-02-11T09:07:53.087Z,102709.22
2023-02-11T09:10:57.524Z,102706.50
2023-02-11T09:14:01.884Z,102706.19
2023-02-11T09:17:05.378Z,102698.09
2023-02-11T09:20:10.762Z,102698.44
2023-02-11T09:23:13.986Z,102696.72
2023-02-11T09:26:20.693Z,102693.75
2023-02-11T09:29:24.074Z,102685.13
2023-02-11T09:32:27.152Z,102680.53
2023-02-11T09:35:29.932Z,102679.94
2023-02-11T09:38:33.607Z,102675.97
2023-02-11T09:41:53.633Z,102668.41
2023-02-11T09:45:00.729Z,102675.28
2023-02-11T09:48:16.172Z,102670.50
2023-02-11T09:51:26.693Z,102671.56
2023-02-11T09:54:37.314Z,102673.09
2023-02-11T09:57:40.081Z,102665.66
2023-02-11T10:01:11.592Z,102668.56
2023-02-11T10:04:29.535Z,102661.03
2023-02-11T10:07:51.720Z,102659.09
2023-02-11T10:11:08.706Z,102659.19
2023-02-11T10:14:26.888Z,102655.78
2023-02-11T10:17:35.257Z,102654.28
2023-02-11T10:21:04.329Z,102643.94
2023-02-11T10:24:14.191Z,102637.53
2023-02-11T10:27:21.388Z,102630.66
2023-02-11T10:30:24.321Z,102622.63
2023-02-11T10:34:00.682Z,102619.06
2023-02-11T10:37:04.260Z,102614.34
2023-02-11T10:40:13.997Z,102612.56
2023-02-11T10:43:19.540Z,102612.81
2023-02-11T10:46:31.401Z,102604.22
2023-02-11T10:49:42.981Z,102601.38
2023-02-11T10:52:45.908Z,102594.53
2023-02-11T10:55:55.023Z,102592.78
2023-02-11T10:59:05.064Z,102585.50
2023-02-11T11:02:32.192Z,102569.72
2023-02-11T11:05:48.485Z,102565.97
2023-02-11T11:08:52.272Z,102562.91
2023-02-11T11:11:55.612Z,102556.09
2023-02-11T11:15:16.585Z,102558.50
2023-02-11T11:18:23.228Z,102535.34
2023-02-11T11:21:36.477Z,102533.09
2023-02-11T11:24:46.864Z,102536.41
2023-02-11T11:27:51.581Z,102536.00
2023-02-11T11:30:57.154Z,102526.22
2023-02-11T11:34:03.475Z,102520.84
2023-02-11T11:37:20.234Z,102518.25
2023-02-11T11:40:27.103Z,102508.63
2023-02-11T11:43:30.207Z,102511.41
2023-02-11T11:46:41.332Z,102516.47
2023-02-11T11:50:06.911Z,102512.59
2023-02-11T11:53:21.005Z,102496.00
2023-02-11T11:56:27.634Z,102498.56
2023-02-11T11:59:30.717Z,102507.09
2023-02-11T12:03:04.579Z,102507.34
2023-02-11T12:06:35.794Z,102500.31
2023-02-11T12:09:41.439Z,102504.91
2023-02-11T12:13:10.287Z,102498.75
2023-02-11T12:16:41.090Z,102489.75
2023-02-11T12:20:18.246Z,102484.94
2023-02-11T12:23:30.900Z,102480.16
2023-02-11T12:26:43.503Z,102482.69
2023-02-11T12:30:03.738Z,102476.59
2023-02-11T12:33:34.665Z,102480.19
2023-02-11T12:36:54.483Z,102472.81
2023-02-11T12:40:28.753Z,102457.44
2023-02-11T12:43:44.118Z,102463.50
2023-02-11T12:47:16.303Z,102448.06
2023-02-11T12:50:49.500Z,102448.41
2023-02-11T12:54:11.100Z,102444.25
2023-02-11T12:57:23.517Z,102433.22
2023-02-11T13:00:40.754Z,102437.41
2023-02-11T13:03:48.485Z,102436.47
2023-02-11T13:07:00.070Z,102434.53
2023-02-11T13:10:26.300Z,102428.78
2023-02-11T13:13:34.632Z,102419.69
2023-02-11T13:16:46.147Z,102425.34
2023-02-11T13:19:55.682Z,102413.88
2023-02-11T13:23:23.942Z,102412.94
2023-02-11T13:26:38.254Z,102396.53
2023-02-11T13:30:12.090Z,102390.81
2023-02-11T13:33:45.925Z,102391.63
2023-02-11T13:36:55.624Z,102394.25
2023-02-11T13:40:22.204Z,102392.81
2023-02-11T13:43:29.088Z,102384.25
2023-02-11T13:46:53.937Z,102390.34
2023-02-11T13:49:58.389Z,102376.66
2023-02-11T13:53:04.020Z,102367.31
2023-02-11T13:56:13.221Z,102364.66
2023-02-11T13:59:25.532Z,102357.63
2023-02-11T14:02:54.523Z,102361.72
2023-02-11T14:06:46.720Z,102355.19
2023-02-11T14:09:57.687Z,102343.59
2023-02-11T14:13:23.409Z,102354.25
2023-02-11T14:16:37.348Z,102354.19
2023-02-11T14:19:46.695Z,102349.38
2023-02-11T14:22:52.968Z,102345.03
2023-02-11T14:26:21.340Z,102356.81
2023-02-11T14:29:42.622Z,102357.47
2023-02-11T14:33:05.728Z,102354.34
2023-02-11T14:36:44.842Z,102350.53
2023-02-11T14:40:08.915Z,102355.25
2023-02-11T14:43:29.566Z,102343.19
2023-02-11T14:46:33.314Z,102339.59
2023-02-11T14:49:40.334Z,102331.56
2023-02-11T14:52:44.577Z,102325.72
2023-02-11T14:55:52.980Z,102325.69
2023-02-11T14:58:56.081Z,102333.84
2023-02-11T15:01:59.538Z,102333.78
2023-02-11T15:05:19.777Z,102340.84
2023-02-11T15:08:23.213Z,102338.84
2023-02-11T15:11:28.868Z,102345.22
2023-02-11T15:14:36.615Z,102341.97
2023-02-11T15:17:39.653Z,102345.19
2023-02-11T15:20:42.553Z,102337.72
2023-02-11T15:23:56.364Z,102334.25
2023-02-11T15:27:18.613Z,102331.97
2023-02-11T15:30:21.724Z,102337.56
2023-02-11T15:33:30.155Z,102338.72
2023-02-11T15:36:36.411Z,102332.56
2023-02-11T15:39:42.401Z,102332.09
2023-02-11T15:43:08.363Z,102323.41
2023-02-11T15:46:17.138Z,102319.41
2023-02-11T15:49:21.547Z,102319.78
2023-02-11T15:52:27.592Z,102318.50
2023-02-11T15:55:31.166Z,102305.38
2023-02-11T15:58:43.576Z,102318.72
2023-02-11T16:01:48.339Z,102305.63
2023-02-11T16:04:57.626Z,102315.69
2023-02-11T16:08:01.762Z,102314.94
2023-02-11T16:11:09.227Z,102316.91
2023-02-11T16:14:37.227Z,102319.63
2023-02-11T16:17:40.297Z,102305.03
2023-02-11T16:20:48.100Z,102301.09
2023-02-11T16:23:56.793Z,102299.69
2023-02-11T16:27:06.870Z,102292.69
2023-02-11T16:30:32.556Z,102294.19
2023-02-11T16:33:35.803Z,102299.31
2023-02-11T16:36:38.887Z,102299.91
2023-02-11T16:39:42.314Z,102312.81
2023-02-11T16:42:45.417Z,102308.03
2023-02-11T16:45:49.521Z,102302.69
2023-02-11T16:48:53.161Z,102304.94
2023-02-11T16:52:01.358Z,102293.75
2023-02-11T16:55:05.563Z,102289.44
2023-02-11T16:58:08.775Z,102284.56
2023-02-11T17:01:14.134Z,102285.63
2023-02-11T17:04:21.179Z,102292.00
2023-02-11T17:07:24.110Z,102289.13
2023-02-11T17:10:27.113Z,102274.94
2023-02-11T17:13:30.357Z,102284.00
2023-02-11T17:16:34.411Z,102285.31
2023-02-11T17:19:38.221Z,102281.75
2023-02-11T17:22:42.145Z,102272.09
2023-02-11T17:25:45.177Z,102283.97
2023-02-11T17:28:48.625Z,102281.59
2023-02-11T17:31:52.783Z,102280.22
2023-02-11T17:34:55.904Z,102281.22
2023-02-11T17:37:59.467Z,102290.25
2023-02-11T17:41:03.549Z,102280.22
2023-02-11T17:44:07.980Z,102279.69
2023-02-11T17:47:12.342Z,102287.06
2023-02-11T17:50:15.919Z,102284.09
2023-02-11T17:53:18.646Z,102286.25
2023-02-11T17:56:21.705Z,102284.72
2023-02-11T17:59:26.167Z,102280.91
2023-02-11T18:02:29.761Z,102276.63
2023-02-11T18:05:37.216Z,102275.31
2023-02-11T18:08:41.894Z,102268.88
2023-02-11T18:11:45.460Z,102255.19
2023-02-11T18:14:48.648Z,102244.81
2023-02-11T18:17:51.696Z,102248.03
2023-02-11T18:20:59.948Z,102255.03
2023-02-11T18:24:06.777Z,102257.56
2023-02-11T18:27:10.102Z,102247.28
2023-02-11T18:30:18.020Z,102246.72
2023-02-11T18:33:21.439Z,102245.50
2023-02-11T18:36:24.561Z,102241.69
2023-02-11T18:39:28.015Z,102245.22
2023-02-11T18:42:33.277Z,102248.09
2023-02-11T18:45:36.409Z,102252.31
2023-02-11T18:48:40.408Z,102248.13
2023-02-11T18:51:43.776Z,102251.00
2023-02-11T18:54:46.856Z,102260.63
2023-02-11T18:57:50.238Z,102259.34
2023-02-11T19:00:53.167Z,102252.19
2023-02-11T19:03:57.631Z,102241.34
2023-02-11T19:07:04.146Z,102251.47
2023-02-11T19:10:08.887Z,102256.72
2023-02-11T19:13:13.094Z,102249.94
2023-02-11T19:16:19.857Z,102256.22
2023-02-11T19:19:25.804Z,102263.50
2023-02-11T19:22:28.810Z,102250.88
2023-02-11T19:25:31.677Z,102252.06
2023-02-11T19:28:37.173Z,102257.22
2023-02-11T19:31:41.027Z,102260.28
2023-02-11T19:34:44.116Z,102251.84
2023-02-11T19:37:47.179Z,102240.41
2023-02-11T19:40:56.178Z,102246.59
2023-02-11T19:44:00.878Z,102246.34
2023-02-11T19:47:04.506Z,102244.81
2023-02-11T19:50:08.899Z,102253.25
2023-02-11T19:53:12.104Z,102249.22
2023-02-11T19:56:16.085Z,102247.31
2023-02-11T19:59:19.739Z,102233.03
2023-02-11T20:02:23.625Z,102241.00
2023-02-11T20:05:26.774Z,102240.41
2023-02-11T20:08:29.749Z,102228.72
2023-02-11T20:11:34.571Z,102235.03
2023-02-11T20:14:39.017Z,102235.75
2023-02-11T20:17:42.065Z,102236.94
2023-02-11T20:20:45.092Z,102237.78
2023-02-11T20:23:50.195Z,102232.78
2023-02-11T20:26:56.128Z,102242.19
2023-02-11T20:29:59.375Z,102244.44
2023-02-11T20:33:02.664Z,102238.47
2023-02-11T20:36:08.705Z,102232.00
2023-02-11T20:39:17.310Z,102236.13
2023-02-11T20:42:20.441Z,102235.53
2023-02-11T20:45:23.575Z,102228.69
2023-02-11T20:48:27.268Z,102218.09
2023-02-11T20:51:32.989Z,102224.97
2023-02-11T20:54:36.126Z,102216.03
2023-02-11T20:57:39.270Z,102217.09
2023-02-11T21:00:42.280Z,102218.78
2023-02-11T21:03:50.352Z,102219.38
2023-02-11T21:06:59.466Z,102213.28
2023-02-11T21:10:02.697Z,102221.03
2023-02-11T21:13:05.963Z,102216.38
2023-02-11T21:16:13.668Z,102219.03
2023-02-11T21:19:17.770Z,102222.34
2023-02-11T21:22:20.952Z,102218.19
2023-02-11T21:25:24.028Z,102224.66
2023-02-11T21:28:27.790Z,102221.66
2023-02-11T21:31:33.114Z,102220.25
2023-02-11T21:34:36.621Z,102217.50
2023-02-11T21:37:39.857Z,102219.03
2023-02-11T21:40:42.808Z,102214.88
2023-02-11T21:43:46.930Z,102218.47
2023-02-11T21:46:49.859Z,102220.28
2023-02-11T21:49:53.279Z,102220.19
2023-02-11T21:52:56.365Z,102217.09
2023-02-11T21:56:07.579Z,102224.47
2023-02-11T21:59:13.015Z,102219.13
2023-02-11T22:02:16.399Z,102214.81
2023-02-11T22:05:19.400Z,102215.91
2023-02-11T22:08:22.488Z,102216.97
2023-02-11T22:11:26.709Z,102210.06
2023-02-11T22:14:32.189Z,102215.28
2023-02-11T22:17:35.398Z,102225.53
2023-02-11T22:20:38.518Z,102220.75
2023-02-11T22:23:41.417Z,102219.69
2023-02-11T22:26:44.520Z,102227.78
2023-02-11T22:29:47.990Z,102215.16
2023-02-11T22:32:50.926Z,102221.13
2023-02-11T22:36:06.515Z,102215.09
2023-02-11T22:39:13.603Z,102224.06
2023-02-11T22:42:16.403Z,102222.88
2023-02-11T22:45:19.249Z,102220.25
2023-02-11T22:48:23.271Z,102221.56
2023-02-11T22:51:29.393Z,102221.16
2023-02-11T22:54:32.315Z,102226.06
2023-02-11T22:57:35.321Z,102215.47
2023-02-11T23:00:42.266Z,102221.16
2023-02-11T23:03:45.491Z,102211.50
2023-02-11T23:06:48.652Z,102203.25
2023-02-11T23:09:51.638Z,102201.44
2023-02-11T23:12:54.543Z,102203.72
2023-02-11T23:15:57.506Z,102199.63
2023-02-11T23:19:04.458Z,102189.16
2023-02-11T23:22:08.861Z,102195.78
2023-02-11T23:25:11.666Z,102190.09
2023-02-11T23:28:14.503Z,102185.91
2023-02-11T23:31:23.697Z,102195.38
2023-02-11T23:34:26.893Z,102190.56
2023-02-11T23:37:29.644Z,102188.03
2023-02-11T23:40:32.418Z,102182.44
2023-02-11T23:43:35.240Z,102190.19
2023-02-11T23:46:38.237Z,102185.44
2023-02-11T23:49:41.064Z,102173.88
2023-02-11T23:52:44.268Z,102176.22
2023-02-11T23:55:47.157Z,102167.84
2023-02-11T23:58:52.181Z,102156.13
